Terminal Aerodrome Forecast
Issued by NWS

Home | Current Version | Previous Version | Text Only | Print | Product List | Glossary On
Versions: 1 2 3 4 5 6 7 8 9 10 11 12 13
481
FTUS46 KMFR 230542
TAFLMT
TAF
KLMT 230542Z 2306/2406 04011KT P6SM SKC
     FM231000 02006KT P6SM SKC
     FM231500 35011KT P6SM SKC
     FM231800 09004KT P6SM SKC
     FM240000 36009KT P6SM SKC=

USA.gov is the U.S. government's official web portal to all federal, state and local government web resources and services.